sensor_id;sensor_type;location;lat;lon;timestamp;P1;durP1;ratioP1;P2;durP2;ratioP2
76380;SDS011;65202;52.520;10.528;2023-03-19T00:00:45;16.77;;;12.20;;
76380;SDS011;65202;52.520;10.528;2023-03-19T00:03:12;16.98;;;12.18;;
76380;SDS011;65202;52.520;10.528;2023-03-19T00:05:39;15.13;;;10.07;;
76380;SDS011;65202;52.520;10.528;2023-03-19T00:08:07;17.98;;;10.60;;
76380;SDS011;65202;52.520;10.528;2023-03-19T00:10:38;13.60;;;10.00;;
76380;SDS011;65202;52.520;10.528;2023-03-19T00:13:05;12.85;;;10.10;;
76380;SDS011;65202;52.520;10.528;2023-03-19T00:15:32;14.70;;;10.15;;
76380;SDS011;65202;52.520;10.528;2023-03-19T00:18:00;14.45;;;9.40;;
76380;SDS011;65202;52.520;10.528;2023-03-19T00:20:27;13.55;;;9.05;;
76380;SDS011;65202;52.520;10.528;2023-03-19T00:22:55;14.57;;;10.30;;
76380;SDS011;65202;52.520;10.528;2023-03-19T00:25:22;13.32;;;10.40;;
76380;SDS011;65202;52.520;10.528;2023-03-19T00:27:50;15.35;;;9.75;;
76380;SDS011;65202;52.520;10.528;2023-03-19T00:30:18;11.27;;;9.18;;
76380;SDS011;65202;52.520;10.528;2023-03-19T00:32:46;12.20;;;8.63;;
76380;SDS011;65202;52.520;10.528;2023-03-19T00:35:14;13.32;;;8.50;;
76380;SDS011;65202;52.520;10.528;2023-03-19T00:37:41;10.48;;;8.55;;
76380;SDS011;65202;52.520;10.528;2023-03-19T00:40:09;15.93;;;9.30;;
76380;SDS011;65202;52.520;10.528;2023-03-19T00:42:37;12.75;;;8.90;;
76380;SDS011;65202;52.520;10.528;2023-03-19T00:45:04;13.95;;;8.70;;
76380;SDS011;65202;52.520;10.528;2023-03-19T00:47:32;14.20;;;9.95;;
76380;SDS011;65202;52.520;10.528;2023-03-19T00:50:00;12.75;;;9.43;;
76380;SDS011;65202;52.520;10.528;2023-03-19T00:52:28;11.93;;;9.45;;
76380;SDS011;65202;52.520;10.528;2023-03-19T00:54:56;14.60;;;9.88;;
76380;SDS011;65202;52.520;10.528;2023-03-19T00:57:23;14.82;;;10.98;;
76380;SDS011;65202;52.520;10.528;2023-03-19T00:59:50;13.63;;;10.45;;
76380;SDS011;65202;52.520;10.528;2023-03-19T01:02:17;14.13;;;10.02;;
76380;SDS011;65202;52.520;10.528;2023-03-19T01:04:46;16.17;;;10.45;;
76380;SDS011;65202;52.520;10.528;2023-03-19T01:07:15;13.32;;;10.20;;
76380;SDS011;65202;52.520;10.528;2023-03-19T01:09:42;14.52;;;11.00;;
76380;SDS011;65202;52.520;10.528;2023-03-19T01:12:09;13.65;;;9.45;;
76380;SDS011;65202;52.520;10.528;2023-03-19T01:14:37;13.70;;;11.23;;
76380;SDS011;65202;52.520;10.528;2023-03-19T01:17:04;14.82;;;11.07;;
76380;SDS011;65202;52.520;10.528;2023-03-19T01:19:32;17.42;;;11.45;;
76380;SDS011;65202;52.520;10.528;2023-03-19T01:21:59;14.30;;;10.88;;
76380;SDS011;65202;52.520;10.528;2023-03-19T01:24:30;17.80;;;10.90;;
76380;SDS011;65202;52.520;10.528;2023-03-19T01:26:58;13.40;;;11.32;;
76380;SDS011;65202;52.520;10.528;2023-03-19T01:29:25;16.40;;;11.25;;
76380;SDS011;65202;52.520;10.528;2023-03-19T01:31:52;18.58;;;12.98;;
76380;SDS011;65202;52.520;10.528;2023-03-19T01:34:19;16.73;;;13.05;;
76380;SDS011;65202;52.520;10.528;2023-03-19T01:36:47;15.70;;;12.65;;
76380;SDS011;65202;52.520;10.528;2023-03-19T01:39:14;16.88;;;12.07;;
76380;SDS011;65202;52.520;10.528;2023-03-19T01:41:41;16.17;;;11.95;;
76380;SDS011;65202;52.520;10.528;2023-03-19T01:44:28;16.02;;;11.73;;
76380;SDS011;65202;52.520;10.528;2023-03-19T01:47:00;18.85;;;12.93;;
76380;SDS011;65202;52.520;10.528;2023-03-19T01:49:33;19.73;;;13.00;;
76380;SDS011;65202;52.520;10.528;2023-03-19T01:52:01;16.98;;;11.80;;
76380;SDS011;65202;52.520;10.528;2023-03-19T01:54:31;16.50;;;12.43;;
76380;SDS011;65202;52.520;10.528;2023-03-19T01:57:07;23.33;;;15.05;;
76380;SDS011;65202;52.520;10.528;2023-03-19T01:59:40;18.35;;;13.38;;
76380;SDS011;65202;52.520;10.528;2023-03-19T02:02:17;21.50;;;14.63;;
76380;SDS011;65202;52.520;10.528;2023-03-19T02:04:55;17.50;;;13.75;;
76380;SDS011;65202;52.520;10.528;2023-03-19T02:07:28;16.95;;;12.30;;
76380;SDS011;65202;52.520;10.528;2023-03-19T02:09:58;17.48;;;12.77;;
76380;SDS011;65202;52.520;10.528;2023-03-19T02:12:29;15.75;;;12.27;;
76380;SDS011;65202;52.520;10.528;2023-03-19T02:14:57;15.32;;;13.23;;
76380;SDS011;65202;52.520;10.528;2023-03-19T02:17:26;18.88;;;13.90;;
76380;SDS011;65202;52.520;10.528;2023-03-19T02:19:56;19.88;;;14.02;;
76380;SDS011;65202;52.520;10.528;2023-03-19T02:22:52;16.75;;;12.77;;
76380;SDS011;65202;52.520;10.528;2023-03-19T02:25:34;13.93;;;11.38;;
76380;SDS011;65202;52.520;10.528;2023-03-19T02:28:18;14.65;;;12.25;;
76380;SDS011;65202;52.520;10.528;2023-03-19T02:30:48;13.07;;;11.20;;
76380;SDS011;65202;52.520;10.528;2023-03-19T02:33:16;17.45;;;11.65;;
76380;SDS011;65202;52.520;10.528;2023-03-19T02:35:45;12.45;;;10.00;;
76380;SDS011;65202;52.520;10.528;2023-03-19T02:38:16;10.13;;;8.63;;
76380;SDS011;65202;52.520;10.528;2023-03-19T02:40:50;9.38;;;8.43;;
76380;SDS011;65202;52.520;10.528;2023-03-19T02:43:27;9.95;;;8.23;;
76380;SDS011;65202;52.520;10.528;2023-03-19T02:45:55;9.25;;;7.32;;
76380;SDS011;65202;52.520;10.528;2023-03-19T02:48:23;13.55;;;9.38;;
76380;SDS011;65202;52.520;10.528;2023-03-19T02:50:51;14.82;;;8.85;;
76380;SDS011;65202;52.520;10.528;2023-03-19T02:53:18;55.40;;;10.38;;
76380;SDS011;65202;52.520;10.528;2023-03-19T02:55:45;64.72;;;10.77;;
76380;SDS011;65202;52.520;10.528;2023-03-19T02:58:12;15.48;;;10.32;;
76380;SDS011;65202;52.520;10.528;2023-03-19T03:00:40;10.07;;;8.98;;
76380;SDS011;65202;52.520;10.528;2023-03-19T03:03:08;10.20;;;9.15;;
76380;SDS011;65202;52.520;10.528;2023-03-19T03:05:35;10.88;;;9.77;;
76380;SDS011;65202;52.520;10.528;2023-03-19T03:08:03;13.52;;;9.95;;
76380;SDS011;65202;52.520;10.528;2023-03-19T03:10:31;13.23;;;11.02;;
76380;SDS011;65202;52.520;10.528;2023-03-19T03:12:59;14.82;;;11.52;;
76380;SDS011;65202;52.520;10.528;2023-03-19T03:15:27;15.95;;;12.85;;
76380;SDS011;65202;52.520;10.528;2023-03-19T03:17:55;14.27;;;11.32;;
76380;SDS011;65202;52.520;10.528;2023-03-19T03:20:23;14.65;;;12.48;;
76380;SDS011;65202;52.520;10.528;2023-03-19T03:22:50;13.40;;;11.23;;
76380;SDS011;65202;52.520;10.528;2023-03-19T03:25:17;12.93;;;10.68;;
76380;SDS011;65202;52.520;10.528;2023-03-19T03:27:45;8.93;;;8.02;;
76380;SDS011;65202;52.520;10.528;2023-03-19T03:30:12;10.40;;;7.57;;
76380;SDS011;65202;52.520;10.528;2023-03-19T03:32:42;8.23;;;7.03;;
76380;SDS011;65202;52.520;10.528;2023-03-19T03:35:10;7.80;;;6.95;;
76380;SDS011;65202;52.520;10.528;2023-03-19T03:37:37;10.52;;;9.10;;
76380;SDS011;65202;52.520;10.528;2023-03-19T03:40:05;11.10;;;9.98;;
76380;SDS011;65202;52.520;10.528;2023-03-19T03:42:35;12.80;;;10.55;;
76380;SDS011;65202;52.520;10.528;2023-03-19T03:45:03;13.13;;;10.98;;
76380;SDS011;65202;52.520;10.528;2023-03-19T03:47:31;10.45;;;9.35;;
76380;SDS011;65202;52.520;10.528;2023-03-19T03:49:58;15.10;;;11.77;;
76380;SDS011;65202;52.520;10.528;2023-03-19T03:52:25;15.55;;;13.32;;
76380;SDS011;65202;52.520;10.528;2023-03-19T03:54:57;14.68;;;12.32;;
76380;SDS011;65202;52.520;10.528;2023-03-19T03:57:24;17.67;;;14.43;;
76380;SDS011;65202;52.520;10.528;2023-03-19T03:59:52;15.02;;;12.10;;
76380;SDS011;65202;52.520;10.528;2023-03-19T04:02:20;11.75;;;10.40;;
76380;SDS011;65202;52.520;10.528;2023-03-19T04:04:47;13.75;;;8.30;;
76380;SDS011;65202;52.520;10.528;2023-03-19T04:07:14;41.28;;;9.27;;
76380;SDS011;65202;52.520;10.528;2023-03-19T04:09:42;14.00;;;12.20;;
76380;SDS011;65202;52.520;10.528;2023-03-19T04:12:09;17.33;;;13.48;;
76380;SDS011;65202;52.520;10.528;2023-03-19T04:14:36;19.13;;;14.45;;
76380;SDS011;65202;52.520;10.528;2023-03-19T04:17:04;19.70;;;15.30;;
76380;SDS011;65202;52.520;10.528;2023-03-19T04:19:31;17.88;;;14.10;;
76380;SDS011;65202;52.520;10.528;2023-03-19T04:21:58;17.77;;;13.75;;
76380;SDS011;65202;52.520;10.528;2023-03-19T04:24:25;17.02;;;13.50;;
76380;SDS011;65202;52.520;10.528;2023-03-19T04:26:53;26.77;;;19.83;;
76380;SDS011;65202;52.520;10.528;2023-03-19T04:29:20;27.77;;;19.92;;
76380;SDS011;65202;52.520;10.528;2023-03-19T04:31:48;17.92;;;13.82;;
76380;SDS011;65202;52.520;10.528;2023-03-19T04:34:16;11.43;;;9.57;;
76380;SDS011;65202;52.520;10.528;2023-03-19T04:36:44;10.52;;;9.43;;
76380;SDS011;65202;52.520;10.528;2023-03-19T04:39:11;12.70;;;10.23;;
76380;SDS011;65202;52.520;10.528;2023-03-19T04:41:38;12.05;;;10.20;;
76380;SDS011;65202;52.520;10.528;2023-03-19T04:44:05;11.40;;;8.68;;
76380;SDS011;65202;52.520;10.528;2023-03-19T04:46:33;9.18;;;6.88;;
76380;SDS011;65202;52.520;10.528;2023-03-19T04:49:00;7.78;;;6.85;;
76380;SDS011;65202;52.520;10.528;2023-03-19T04:51:27;12.65;;;7.60;;
76380;SDS011;65202;52.520;10.528;2023-03-19T04:53:55;12.45;;;8.70;;
76380;SDS011;65202;52.520;10.528;2023-03-19T04:56:22;19.60;;;12.38;;
76380;SDS011;65202;52.520;10.528;2023-03-19T04:58:49;25.27;;;19.00;;
76380;SDS011;65202;52.520;10.528;2023-03-19T05:01:17;27.30;;;20.88;;
76380;SDS011;65202;52.520;10.528;2023-03-19T05:03:44;30.75;;;23.20;;
76380;SDS011;65202;52.520;10.528;2023-03-19T05:06:12;28.75;;;22.50;;
76380;SDS011;65202;52.520;10.528;2023-03-19T05:08:39;26.85;;;20.75;;
76380;SDS011;65202;52.520;10.528;2023-03-19T05:11:06;22.00;;;18.38;;
76380;SDS011;65202;52.520;10.528;2023-03-19T05:13:34;19.40;;;15.10;;
76380;SDS011;65202;52.520;10.528;2023-03-19T05:16:01;17.63;;;13.55;;
76380;SDS011;65202;52.520;10.528;2023-03-19T05:18:29;17.67;;;12.02;;
76380;SDS011;65202;52.520;10.528;2023-03-19T05:20:56;14.15;;;11.02;;
76380;SDS011;65202;52.520;10.528;2023-03-19T05:23:24;13.50;;;10.85;;
76380;SDS011;65202;52.520;10.528;2023-03-19T05:25:51;15.70;;;12.10;;
76380;SDS011;65202;52.520;10.528;2023-03-19T05:28:18;14.18;;;11.82;;
76380;SDS011;65202;52.520;10.528;2023-03-19T05:30:46;12.57;;;9.88;;
76380;SDS011;65202;52.520;10.528;2023-03-19T05:33:13;14.63;;;11.35;;
76380;SDS011;65202;52.520;10.528;2023-03-19T05:35:40;15.43;;;10.32;;
76380;SDS011;65202;52.520;10.528;2023-03-19T05:38:08;15.07;;;11.68;;
76380;SDS011;65202;52.520;10.528;2023-03-19T05:40:36;17.60;;;11.98;;
76380;SDS011;65202;52.520;10.528;2023-03-19T05:43:04;14.00;;;10.57;;
76380;SDS011;65202;52.520;10.528;2023-03-19T05:45:31;16.33;;;11.85;;
76380;SDS011;65202;52.520;10.528;2023-03-19T05:47:58;15.57;;;12.18;;
76380;SDS011;65202;52.520;10.528;2023-03-19T05:50:26;21.65;;;13.30;;
76380;SDS011;65202;52.520;10.528;2023-03-19T05:52:53;13.93;;;11.50;;
76380;SDS011;65202;52.520;10.528;2023-03-19T05:55:21;17.02;;;13.40;;
76380;SDS011;65202;52.520;10.528;2023-03-19T05:57:48;19.65;;;15.68;;
76380;SDS011;65202;52.520;10.528;2023-03-19T06:00:15;18.63;;;15.15;;
76380;SDS011;65202;52.520;10.528;2023-03-19T06:02:44;17.95;;;14.40;;
76380;SDS011;65202;52.520;10.528;2023-03-19T06:05:11;19.55;;;15.07;;
76380;SDS011;65202;52.520;10.528;2023-03-19T06:07:38;20.17;;;13.73;;
76380;SDS011;65202;52.520;10.528;2023-03-19T06:10:06;16.33;;;12.40;;
76380;SDS011;65202;52.520;10.528;2023-03-19T06:12:34;14.52;;;11.77;;
76380;SDS011;65202;52.520;10.528;2023-03-19T06:15:01;15.50;;;12.07;;
76380;SDS011;65202;52.520;10.528;2023-03-19T06:17:29;14.88;;;11.60;;
76380;SDS011;65202;52.520;10.528;2023-03-19T06:19:56;14.80;;;11.55;;
76380;SDS011;65202;52.520;10.528;2023-03-19T06:22:23;20.27;;;12.68;;
76380;SDS011;65202;52.520;10.528;2023-03-19T06:24:51;17.38;;;13.02;;
76380;SDS011;65202;52.520;10.528;2023-03-19T06:27:18;15.60;;;11.32;;
76380;SDS011;65202;52.520;10.528;2023-03-19T06:29:45;17.50;;;11.48;;
76380;SDS011;65202;52.520;10.528;2023-03-19T06:32:12;14.07;;;11.38;;
76380;SDS011;65202;52.520;10.528;2023-03-19T06:34:39;13.77;;;11.50;;
76380;SDS011;65202;52.520;10.528;2023-03-19T06:37:07;11.93;;;10.60;;
76380;SDS011;65202;52.520;10.528;2023-03-19T06:39:34;13.25;;;10.90;;
76380;SDS011;65202;52.520;10.528;2023-03-19T06:42:02;15.15;;;11.68;;
76380;SDS011;65202;52.520;10.528;2023-03-19T06:44:29;14.73;;;12.65;;
76380;SDS011;65202;52.520;10.528;2023-03-19T06:46:57;15.18;;;12.70;;
76380;SDS011;65202;52.520;10.528;2023-03-19T06:49:24;16.13;;;12.57;;
76380;SDS011;65202;52.520;10.528;2023-03-19T06:51:51;11.82;;;10.55;;
76380;SDS011;65202;52.520;10.528;2023-03-19T06:54:18;13.70;;;11.20;;
76380;SDS011;65202;52.520;10.528;2023-03-19T06:56:45;16.55;;;10.93;;
76380;SDS011;65202;52.520;10.528;2023-03-19T06:59:13;17.58;;;12.23;;
76380;SDS011;65202;52.520;10.528;2023-03-19T07:01:40;17.73;;;11.85;;
76380;SDS011;65202;52.520;10.528;2023-03-19T07:04:08;17.92;;;13.48;;
76380;SDS011;65202;52.520;10.528;2023-03-19T07:06:36;20.00;;;14.23;;
76380;SDS011;65202;52.520;10.528;2023-03-19T07:09:04;20.05;;;13.18;;
76380;SDS011;65202;52.520;10.528;2023-03-19T07:11:31;12.30;;;10.75;;
76380;SDS011;65202;52.520;10.528;2023-03-19T07:14:01;11.57;;;9.07;;
76380;SDS011;65202;52.520;10.528;2023-03-19T07:16:30;10.23;;;8.43;;
76380;SDS011;65202;52.520;10.528;2023-03-19T07:18:57;14.68;;;9.30;;
76380;SDS011;65202;52.520;10.528;2023-03-19T07:21:25;14.15;;;8.00;;
76380;SDS011;65202;52.520;10.528;2023-03-19T07:23:52;12.38;;;7.40;;
76380;SDS011;65202;52.520;10.528;2023-03-19T07:26:19;13.30;;;6.72;;
76380;SDS011;65202;52.520;10.528;2023-03-19T07:28:46;8.77;;;6.10;;
76380;SDS011;65202;52.520;10.528;2023-03-19T07:31:14;10.52;;;6.70;;
76380;SDS011;65202;52.520;10.528;2023-03-19T07:33:42;10.93;;;7.20;;
76380;SDS011;65202;52.520;10.528;2023-03-19T07:36:10;8.02;;;6.40;;
76380;SDS011;65202;52.520;10.528;2023-03-19T07:38:37;11.00;;;6.97;;
76380;SDS011;65202;52.520;10.528;2023-03-19T07:41:04;12.95;;;7.18;;
76380;SDS011;65202;52.520;10.528;2023-03-19T07:43:31;9.32;;;6.22;;
76380;SDS011;65202;52.520;10.528;2023-03-19T07:45:59;9.73;;;6.47;;
76380;SDS011;65202;52.520;10.528;2023-03-19T07:48:26;11.52;;;5.97;;
76380;SDS011;65202;52.520;10.528;2023-03-19T07:50:54;9.38;;;5.60;;
76380;SDS011;65202;52.520;10.528;2023-03-19T07:53:21;7.28;;;5.00;;
76380;SDS011;65202;52.520;10.528;2023-03-19T07:55:49;10.63;;;5.07;;
76380;SDS011;65202;52.520;10.528;2023-03-19T07:58:16;9.77;;;5.22;;
76380;SDS011;65202;52.520;10.528;2023-03-19T08:00:44;11.35;;;5.20;;
76380;SDS011;65202;52.520;10.528;2023-03-19T08:03:11;12.55;;;5.70;;
76380;SDS011;65202;52.520;10.528;2023-03-19T08:05:38;12.05;;;5.57;;
76380;SDS011;65202;52.520;10.528;2023-03-19T08:08:06;13.35;;;6.15;;
76380;SDS011;65202;52.520;10.528;2023-03-19T08:10:33;10.57;;;5.68;;
76380;SDS011;65202;52.520;10.528;2023-03-19T08:13:03;12.23;;;5.53;;
76380;SDS011;65202;52.520;10.528;2023-03-19T08:15:31;10.85;;;5.72;;
76380;SDS011;65202;52.520;10.528;2023-03-19T08:17:59;10.48;;;5.40;;
76380;SDS011;65202;52.520;10.528;2023-03-19T08:20:27;10.50;;;5.72;;
76380;SDS011;65202;52.520;10.528;2023-03-19T08:22:54;11.93;;;6.47;;
76380;SDS011;65202;52.520;10.528;2023-03-19T08:25:23;11.50;;;5.63;;
76380;SDS011;65202;52.520;10.528;2023-03-19T08:27:51;11.15;;;5.40;;
76380;SDS011;65202;52.520;10.528;2023-03-19T08:30:18;11.43;;;5.90;;
76380;SDS011;65202;52.520;10.528;2023-03-19T08:32:46;9.55;;;5.18;;
76380;SDS011;65202;52.520;10.528;2023-03-19T08:35:15;10.93;;;5.40;;
76380;SDS011;65202;52.520;10.528;2023-03-19T08:37:43;21.45;;;11.10;;
76380;SDS011;65202;52.520;10.528;2023-03-19T08:40:10;10.85;;;5.38;;
76380;SDS011;65202;52.520;10.528;2023-03-19T08:42:38;13.65;;;5.40;;
76380;SDS011;65202;52.520;10.528;2023-03-19T08:45:11;11.48;;;5.78;;
76380;SDS011;65202;52.520;10.528;2023-03-19T08:47:40;12.07;;;5.20;;
76380;SDS011;65202;52.520;10.528;2023-03-19T08:50:09;10.80;;;5.03;;
76380;SDS011;65202;52.520;10.528;2023-03-19T08:52:37;11.13;;;4.90;;
76380;SDS011;65202;52.520;10.528;2023-03-19T08:55:05;14.43;;;4.90;;
76380;SDS011;65202;52.520;10.528;2023-03-19T08:57:34;13.07;;;5.05;;
76380;SDS011;65202;52.520;10.528;2023-03-19T09:00:02;12.70;;;5.35;;
76380;SDS011;65202;52.520;10.528;2023-03-19T09:02:31;9.75;;;5.45;;
76380;SDS011;65202;52.520;10.528;2023-03-19T09:04:58;9.95;;;5.18;;
76380;SDS011;65202;52.520;10.528;2023-03-19T09:07:26;12.38;;;6.05;;
76380;SDS011;65202;52.520;10.528;2023-03-19T09:09:53;11.57;;;5.30;;
76380;SDS011;65202;52.520;10.528;2023-03-19T09:12:20;10.88;;;5.60;;
76380;SDS011;65202;52.520;10.528;2023-03-19T09:14:47;9.25;;;5.22;;
76380;SDS011;65202;52.520;10.528;2023-03-19T09:17:15;10.77;;;5.15;;
76380;SDS011;65202;52.520;10.528;2023-03-19T09:19:44;8.75;;;4.30;;
76380;SDS011;65202;52.520;10.528;2023-03-19T09:22:11;11.23;;;7.00;;
76380;SDS011;65202;52.520;10.528;2023-03-19T09:24:38;12.90;;;5.90;;
76380;SDS011;65202;52.520;10.528;2023-03-19T09:27:06;11.10;;;5.72;;
76380;SDS011;65202;52.520;10.528;2023-03-19T09:29:34;9.18;;;5.18;;
76380;SDS011;65202;52.520;10.528;2023-03-19T09:32:01;6.85;;;5.00;;
76380;SDS011;65202;52.520;10.528;2023-03-19T09:34:28;8.52;;;4.20;;
76380;SDS011;65202;52.520;10.528;2023-03-19T09:36:55;8.30;;;4.43;;
76380;SDS011;65202;52.520;10.528;2023-03-19T09:39:23;9.45;;;3.60;;
76380;SDS011;65202;52.520;10.528;2023-03-19T09:44:50;11.93;;;7.50;;
76380;SDS011;65202;52.520;10.528;2023-03-19T09:49:55;13.30;;;5.82;;
76380;SDS011;65202;52.520;10.528;2023-03-19T09:52:34;17.58;;;8.20;;
76380;SDS011;65202;52.520;10.528;2023-03-19T09:57:49;19.58;;;8.80;;
76380;SDS011;65202;52.520;10.528;2023-03-19T10:00:20;19.15;;;11.02;;
76380;SDS011;65202;52.520;10.528;2023-03-19T10:17:18;7.88;;;3.03;;
76380;SDS011;65202;52.520;10.528;2023-03-19T10:23:11;7.60;;;2.97;;
76380;SDS011;65202;52.520;10.528;2023-03-19T10:25:58;10.05;;;3.50;;
76380;SDS011;65202;52.520;10.528;2023-03-19T10:28:28;3.40;;;1.67;;
76380;SDS011;65202;52.520;10.528;2023-03-19T10:31:13;4.50;;;2.20;;
76380;SDS011;65202;52.520;10.528;2023-03-19T10:33:57;4.63;;;2.50;;
76380;SDS011;65202;52.520;10.528;2023-03-19T10:36:37;4.25;;;2.60;;
76380;SDS011;65202;52.520;10.528;2023-03-19T10:39:04;3.10;;;1.60;;
76380;SDS011;65202;52.520;10.528;2023-03-19T10:41:55;6.63;;;2.28;;
76380;SDS011;65202;52.520;10.528;2023-03-19T10:44:34;5.57;;;2.00;;
76380;SDS011;65202;52.520;10.528;2023-03-19T10:47:09;3.38;;;1.42;;
76380;SDS011;65202;52.520;10.528;2023-03-19T10:49:40;5.35;;;1.80;;
76380;SDS011;65202;52.520;10.528;2023-03-19T10:52:15;2.63;;;1.40;;
76380;SDS011;65202;52.520;10.528;2023-03-19T10:54:43;6.20;;;1.50;;
76380;SDS011;65202;52.520;10.528;2023-03-19T10:57:22;2.67;;;1.10;;
76380;SDS011;65202;52.520;10.528;2023-03-19T10:59:53;1.40;;;1.17;;
76380;SDS011;65202;52.520;10.528;2023-03-19T11:02:24;2.60;;;1.23;;
76380;SDS011;65202;52.520;10.528;2023-03-19T11:05:05;2.03;;;1.00;;
76380;SDS011;65202;52.520;10.528;2023-03-19T11:07:38;2.30;;;1.10;;
76380;SDS011;65202;52.520;10.528;2023-03-19T11:10:16;4.00;;;1.00;;
76380;SDS011;65202;52.520;10.528;2023-03-19T11:12:46;2.40;;;1.13;;
76380;SDS011;65202;52.520;10.528;2023-03-19T11:15:22;1.52;;;1.20;;
76380;SDS011;65202;52.520;10.528;2023-03-19T11:18:00;2.20;;;1.40;;
76380;SDS011;65202;52.520;10.528;2023-03-19T11:20:35;3.15;;;1.30;;
76380;SDS011;65202;52.520;10.528;2023-03-19T11:23:12;2.38;;;1.42;;
76380;SDS011;65202;52.520;10.528;2023-03-19T11:25:46;5.25;;;2.67;;
76380;SDS011;65202;52.520;10.528;2023-03-19T11:28:19;3.92;;;1.58;;
76380;SDS011;65202;52.520;10.528;2023-03-19T11:31:05;4.85;;;1.80;;
76380;SDS011;65202;52.520;10.528;2023-03-19T11:36:55;6.28;;;1.10;;
76380;SDS011;65202;52.520;10.528;2023-03-19T11:43:52;2.42;;;1.20;;
76380;SDS011;65202;52.520;10.528;2023-03-19T11:46:33;1.40;;;0.80;;
76380;SDS011;65202;52.520;10.528;2023-03-19T11:49:32;3.80;;;1.73;;
76380;SDS011;65202;52.520;10.528;2023-03-19T11:55:09;5.00;;;2.83;;
76380;SDS011;65202;52.520;10.528;2023-03-19T11:57:54;3.95;;;2.05;;
76380;SDS011;65202;52.520;10.528;2023-03-19T12:06:30;4.82;;;2.20;;
76380;SDS011;65202;52.520;10.528;2023-03-19T12:12:17;4.18;;;1.50;;
76380;SDS011;65202;52.520;10.528;2023-03-19T12:14:59;2.83;;;1.90;;
76380;SDS011;65202;52.520;10.528;2023-03-19T12:20:55;2.80;;;1.40;;
76380;SDS011;65202;52.520;10.528;2023-03-19T12:29:53;3.72;;;1.77;;
76380;SDS011;65202;52.520;10.528;2023-03-19T12:33:13;6.20;;;2.10;;
76380;SDS011;65202;52.520;10.528;2023-03-19T12:35:52;5.03;;;2.30;;
76380;SDS011;65202;52.520;10.528;2023-03-19T12:38:38;3.17;;;1.70;;
76380;SDS011;65202;52.520;10.528;2023-03-19T12:41:21;3.72;;;1.80;;
76380;SDS011;65202;52.520;10.528;2023-03-19T12:43:54;2.90;;;2.40;;
76380;SDS011;65202;52.520;10.528;2023-03-19T12:47:02;5.50;;;2.35;;
76380;SDS011;65202;52.520;10.528;2023-03-19T12:49:36;4.13;;;2.70;;
76380;SDS011;65202;52.520;10.528;2023-03-19T12:57:43;5.43;;;2.40;;
76380;SDS011;65202;52.520;10.528;2023-03-19T13:00:27;4.10;;;2.00;;
76380;SDS011;65202;52.520;10.528;2023-03-19T13:08:36;6.43;;;2.22;;
76380;SDS011;65202;52.520;10.528;2023-03-19T13:11:20;5.68;;;2.50;;
76380;SDS011;65202;52.520;10.528;2023-03-19T13:14:24;3.70;;;2.28;;
76380;SDS011;65202;52.520;10.528;2023-03-19T13:17:15;6.07;;;2.53;;
76380;SDS011;65202;52.520;10.528;2023-03-19T13:19:48;4.78;;;2.30;;
76380;SDS011;65202;52.520;10.528;2023-03-19T13:22:20;6.30;;;2.80;;
76380;SDS011;65202;52.520;10.528;2023-03-19T13:24:53;5.80;;;2.72;;
76380;SDS011;65202;52.520;10.528;2023-03-19T13:27:26;6.18;;;3.00;;
76380;SDS011;65202;52.520;10.528;2023-03-19T13:30:15;7.47;;;2.47;;
76380;SDS011;65202;52.520;10.528;2023-03-19T13:32:46;8.40;;;4.05;;
76380;SDS011;65202;52.520;10.528;2023-03-19T13:38:03;9.68;;;2.60;;
76380;SDS011;65202;52.520;10.528;2023-03-19T13:53:39;4.63;;;2.15;;
76380;SDS011;65202;52.520;10.528;2023-03-19T13:56:17;4.80;;;2.05;;
76380;SDS011;65202;52.520;10.528;2023-03-19T14:01:42;6.80;;;2.60;;
76380;SDS011;65202;52.520;10.528;2023-03-19T14:04:17;8.00;;;2.10;;
76380;SDS011;65202;52.520;10.528;2023-03-19T14:10:03;6.30;;;2.40;;
76380;SDS011;65202;52.520;10.528;2023-03-19T14:12:48;9.98;;;3.05;;
76380;SDS011;65202;52.520;10.528;2023-03-19T14:15:19;7.07;;;2.90;;
76380;SDS011;65202;52.520;10.528;2023-03-19T14:17:54;3.72;;;1.85;;
76380;SDS011;65202;52.520;10.528;2023-03-19T14:20:50;3.60;;;1.90;;
76380;SDS011;65202;52.520;10.528;2023-03-19T14:23:39;2.35;;;1.50;;
76380;SDS011;65202;52.520;10.528;2023-03-19T14:26:19;5.90;;;1.80;;
76380;SDS011;65202;52.520;10.528;2023-03-19T14:28:52;3.00;;;1.60;;
76380;SDS011;65202;52.520;10.528;2023-03-19T14:31:42;3.72;;;1.70;;
76380;SDS011;65202;52.520;10.528;2023-03-19T14:37:14;4.22;;;1.60;;
76380;SDS011;65202;52.520;10.528;2023-03-19T14:39:53;3.42;;;1.60;;
76380;SDS011;65202;52.520;10.528;2023-03-19T14:45:16;3.45;;;1.50;;
76380;SDS011;65202;52.520;10.528;2023-03-19T14:48:19;8.82;;;2.20;;
76380;SDS011;65202;52.520;10.528;2023-03-19T14:53:59;6.45;;;3.20;;
76380;SDS011;65202;52.520;10.528;2023-03-19T14:56:47;5.97;;;2.80;;
76380;SDS011;65202;52.520;10.528;2023-03-19T14:59:14;12.43;;;7.65;;
76380;SDS011;65202;52.520;10.528;2023-03-19T15:01:45;10.77;;;6.50;;
76380;SDS011;65202;52.520;10.528;2023-03-19T15:04:21;9.68;;;6.07;;
76380;SDS011;65202;52.520;10.528;2023-03-19T15:06:54;4.60;;;1.90;;
76380;SDS011;65202;52.520;10.528;2023-03-19T15:09:27;2.38;;;1.60;;
76380;SDS011;65202;52.520;10.528;2023-03-19T15:17:43;5.35;;;2.05;;
76380;SDS011;65202;52.520;10.528;2023-03-19T15:20:23;4.90;;;1.88;;
76380;SDS011;65202;52.520;10.528;2023-03-19T15:22:52;3.25;;;1.80;;
76380;SDS011;65202;52.520;10.528;2023-03-19T15:25:26;3.75;;;1.85;;
76380;SDS011;65202;52.520;10.528;2023-03-19T15:28:10;3.85;;;1.58;;
76380;SDS011;65202;52.520;10.528;2023-03-19T15:30:41;5.68;;;2.25;;
76380;SDS011;65202;52.520;10.528;2023-03-19T15:33:31;4.18;;;2.70;;
76380;SDS011;65202;52.520;10.528;2023-03-19T15:36:19;5.82;;;3.08;;
76380;SDS011;65202;52.520;10.528;2023-03-19T15:38:59;8.75;;;5.32;;
76380;SDS011;65202;52.520;10.528;2023-03-19T15:41:32;11.15;;;5.25;;
76380;SDS011;65202;52.520;10.528;2023-03-19T15:44:07;10.60;;;4.50;;
76380;SDS011;65202;52.520;10.528;2023-03-19T15:46:46;5.90;;;2.53;;
76380;SDS011;65202;52.520;10.528;2023-03-19T15:52:03;4.75;;;2.38;;
76380;SDS011;65202;52.520;10.528;2023-03-19T15:54:36;5.32;;;1.95;;
76380;SDS011;65202;52.520;10.528;2023-03-19T15:57:04;4.43;;;2.15;;
76380;SDS011;65202;52.520;10.528;2023-03-19T15:59:35;6.07;;;2.50;;
76380;SDS011;65202;52.520;10.528;2023-03-19T16:02:09;6.75;;;2.22;;
76380;SDS011;65202;52.520;10.528;2023-03-19T16:04:51;5.97;;;2.50;;
76380;SDS011;65202;52.520;10.528;2023-03-19T16:07:43;6.80;;;3.10;;
76380;SDS011;65202;52.520;10.528;2023-03-19T16:12:59;7.20;;;3.60;;
76380;SDS011;65202;52.520;10.528;2023-03-19T16:15:39;9.90;;;2.60;;
76380;SDS011;65202;52.520;10.528;2023-03-19T16:20:53;9.45;;;3.50;;
76380;SDS011;65202;52.520;10.528;2023-03-19T16:23:37;8.32;;;3.17;;
76380;SDS011;65202;52.520;10.528;2023-03-19T16:26:22;4.28;;;2.60;;
76380;SDS011;65202;52.520;10.528;2023-03-19T16:28:57;6.30;;;2.78;;
76380;SDS011;65202;52.520;10.528;2023-03-19T16:31:59;7.10;;;3.45;;
76380;SDS011;65202;52.520;10.528;2023-03-19T16:34:43;14.40;;;7.50;;
76380;SDS011;65202;52.520;10.528;2023-03-19T16:42:48;5.95;;;3.00;;